Time;durP1;ratioP1;P1;durP2;ratioP2;P2;SDS_P1;SDS_P2;PMS_P1;PMS_P2;Temp;Humidity;BMP_temperature;BMP_pressure;BME280_temperature;BME280_humidity;BME280_pressure;Samples;Min_cycle;Max_cycle;Signal;HPM_P1;HPM_P2
2021/12/04 00:01:53;;;;;;;51.75;17.45;;;;;;;;;;5038608;28;20159;-60
2021/12/04 00:04:23;;;;;;;47.75;18.05;;;;;;;;;;5039103;28;20024;-59
2021/12/04 00:06:51;;;;;;;53.50;17.27;;;;;;;;;;5038699;28;20388;-59
2021/12/04 00:09:21;;;;;;;44.38;16.25;;;;;;;;;;5037769;28;20017;-61
2021/12/04 00:12:00;;;;;;;50.78;17.17;;;;;;;;;;5037127;28;20037;-60
2021/12/04 00:14:27;;;;;;;47.63;18.10;;;;;;;;;;5026155;28;20056;-60
2021/12/04 00:16:53;;;;;;;47.38;16.73;;;;;;;;;;5045665;28;20548;-59
2021/12/04 00:19:22;;;;;;;53.47;19.17;;;;;;;;;;5055303;28;20037;-58
2021/12/04 00:21:52;;;;;;;48.28;16.95;;;;;;;;;;5040580;28;20044;-59
2021/12/04 00:24:21;;;;;;;48.78;16.85;;;;;;;;;;5040159;28;20035;-59
2021/12/04 00:26:50;;;;;;;62.75;18.42;;;;;;;;;;5036786;28;20033;-60
2021/12/04 00:29:21;;;;;;;59.80;19.10;;;;;;;;;;5040536;28;20036;-58
2021/12/04 00:31:53;;;;;;;70.97;19.02;;;;;;;;;;5037887;28;20036;-58
2021/12/04 00:34:21;;;;;;;57.38;17.15;;;;;;;;;;5037207;28;20036;-58
2021/12/04 00:50:22;;;;;;;64.03;18.67;;;;;;;;;;5055390;28;20082;-59
2021/12/04 00:52:50;;;;;;;60.35;17.52;;;;;;;;;;5039725;28;20033;-60
2021/12/04 00:55:18;;;;;;;51.08;18.08;;;;;;;;;;5040291;28;20052;-58
2021/12/04 00:57:48;;;;;;;59.60;17.67;;;;;;;;;;5035936;28;20032;-61
2021/12/04 01:00:16;;;;;;;56.42;17.33;;;;;;;;;;5037608;28;20077;-59
2021/12/04 01:02:44;;;;;;;48.35;17.55;;;;;;;;;;5036546;28;20041;-59
2021/12/04 01:05:11;;;;;;;61.75;17.60;;;;;;;;;;5039950;28;20045;-60
2021/12/04 01:07:40;;;;;;;52.45;17.85;;;;;;;;;;5040326;28;20107;-59
2021/12/04 01:10:07;;;;;;;61.47;17.92;;;;;;;;;;5036611;28;20043;-59
2021/12/04 01:12:35;;;;;;;54.10;16.10;;;;;;;;;;5022778;28;21296;-59
2021/12/04 01:15:03;;;;;;;59.08;17.13;;;;;;;;;;5040625;28;20052;-60
2021/12/04 01:17:34;;;;;;;62.10;19.02;;;;;;;;;;5039729;28;20067;-60
2021/12/04 01:20:02;;;;;;;58.40;17.42;;;;;;;;;;5041956;28;20063;-59
2021/12/04 01:22:33;;;;;;;62.72;18.73;;;;;;;;;;5040339;28;20120;-60
2021/12/04 01:24:58;;;;;;;55.17;16.52;;;;;;;;;;5040015;28;20391;-59
2021/12/04 01:27:26;;;;;;;71.47;19.52;;;;;;;;;;5039357;28;20036;-60
2021/12/04 01:29:56;;;;;;;55.22;18.05;;;;;;;;;;5027994;28;20023;-60
2021/12/04 01:32:21;;;;;;;52.72;17.10;;;;;;;;;;5053307;28;20367;-59
2021/12/04 01:34:47;;;;;;;50.58;17.25;;;;;;;;;;5055239;28;20042;-60
2021/12/04 01:37:15;;;;;;;57.30;17.25;;;;;;;;;;5027168;28;20045;-59
2021/12/04 01:39:43;;;;;;;59.70;18.60;;;;;;;;;;5038994;28;20181;-59
2021/12/04 01:42:09;;;;;;;50.83;17.70;;;;;;;;;;5039571;28;20028;-59
2021/12/04 01:44:34;;;;;;;61.78;19.45;;;;;;;;;;5039903;28;20029;-60
2021/12/04 01:47:09;;;;;;;60.53;18.63;;;;;;;;;;5039738;28;22204;-60
2021/12/04 01:49:39;;;;;;;76.20;19.58;;;;;;;;;;5041210;28;20029;-59
2021/12/04 01:52:07;;;;;;;56.22;18.17;;;;;;;;;;5037015;28;21028;-58
2021/12/04 01:54:37;;;;;;;64.15;18.75;;;;;;;;;;5040737;28;20040;-59
2021/12/04 01:57:05;;;;;;;58.15;16.98;;;;;;;;;;5056851;28;20047;-60
2021/12/04 01:59:33;;;;;;;55.72;16.65;;;;;;;;;;5044004;28;20033;-61
2021/12/04 02:01:58;;;;;;;62.67;18.60;;;;;;;;;;5040596;28;20045;-58
2021/12/04 02:04:24;;;;;;;61.97;17.52;;;;;;;;;;5044831;28;21882;-60
2021/12/04 02:06:52;;;;;;;62.33;18.35;;;;;;;;;;5045883;28;20037;-59
2021/12/04 02:09:19;;;;;;;51.10;17.88;;;;;;;;;;5038792;28;20174;-59
2021/12/04 02:11:51;;;;;;;69.88;18.88;;;;;;;;;;5041976;28;20066;-59
2021/12/04 02:14:19;;;;;;;55.45;14.75;;;;;;;;;;5043559;28;20163;-59
2021/12/04 02:16:47;;;;;;;67.10;18.50;;;;;;;;;;5023199;28;20044;-59
2021/12/04 02:19:18;;;;;;;63.22;17.67;;;;;;;;;;5039991;28;20107;-59
2021/12/04 02:21:48;;;;;;;60.15;16.25;;;;;;;;;;5044174;28;20049;-59
2021/12/04 02:24:13;;;;;;;57.42;16.75;;;;;;;;;;5041403;28;20032;-61
2021/12/04 02:26:41;;;;;;;54.30;17.95;;;;;;;;;;5040428;28;20032;-59
2021/12/04 02:29:07;;;;;;;58.65;15.85;;;;;;;;;;5043771;28;20107;-60
2021/12/04 02:31:39;;;;;;;53.60;16.80;;;;;;;;;;5040263;28;20032;-60
2021/12/04 02:34:04;;;;;;;55.63;17.45;;;;;;;;;;5041782;28;20288;-59
2021/12/04 02:36:35;;;;;;;46.40;15.82;;;;;;;;;;5042685;28;20995;-59
2021/12/04 02:39:03;;;;;;;59.45;16.08;;;;;;;;;;5043769;28;20105;-60
2021/12/04 02:41:29;;;;;;;60.55;18.35;;;;;;;;;;5043111;28;21017;-58
2021/12/04 02:44:02;;;;;;;53.70;17.48;;;;;;;;;;5054435;28;20040;-59
2021/12/04 02:46:33;;;;;;;46.63;14.18;;;;;;;;;;5043910;28;21012;-59
2021/12/04 02:49:00;;;;;;;50.28;15.23;;;;;;;;;;5056766;28;20033;-58
2021/12/04 02:51:28;;;;;;;54.10;16.23;;;;;;;;;;5039145;28;20029;-60
2021/12/04 02:53:57;;;;;;;59.60;17.48;;;;;;;;;;5057278;28;20036;-60
2021/12/04 02:56:30;;;;;;;53.42;15.23;;;;;;;;;;5032688;28;20561;-59
2021/12/04 02:59:02;;;;;;;56.10;17.17;;;;;;;;;;5043373;28;20032;-60
2021/12/04 03:01:28;;;;;;;59.25;15.32;;;;;;;;;;5038288;28;20053;-58
2021/12/04 03:04:09;;;;;;;52.58;16.70;;;;;;;;;;5041392;28;20456;-59
2021/12/04 03:06:42;;;;;;;64.93;16.85;;;;;;;;;;5041149;28;20024;-59
2021/12/04 03:09:07;;;;;;;51.92;15.55;;;;;;;;;;5039497;28;20685;-58
2021/12/04 03:11:38;;;;;;;57.28;14.15;;;;;;;;;;5036459;28;20060;-59
2021/12/04 03:14:03;;;;;;;51.08;14.93;;;;;;;;;;5039863;28;20044;-58
2021/12/04 03:16:33;;;;;;;54.03;14.63;;;;;;;;;;5053762;28;20037;-59
2021/12/04 03:18:58;;;;;;;51.35;14.20;;;;;;;;;;5042020;28;20028;-59
2021/12/04 03:21:26;;;;;;;42.13;13.85;;;;;;;;;;5024144;28;20036;-58
2021/12/04 03:24:00;;;;;;;51.45;14.98;;;;;;;;;;5058321;28;20020;-58
2021/12/04 03:26:26;;;;;;;49.28;15.43;;;;;;;;;;5040387;28;20048;-59
2021/12/04 03:28:55;;;;;;;54.22;15.98;;;;;;;;;;5043983;28;20032;-59
2021/12/04 03:42:26;;;;;;;51.97;14.63;;;;;;;;;;5026898;28;20041;-59
2021/12/04 03:44:54;;;;;;;42.10;13.98;;;;;;;;;;5042438;28;20032;-60
2021/12/04 03:47:22;;;;;;;45.50;14.65;;;;;;;;;;5040932;28;20082;-59
2021/12/04 03:49:50;;;;;;;53.88;16.80;;;;;;;;;;5028895;28;20439;-59
2021/12/04 03:52:18;;;;;;;47.45;14.32;;;;;;;;;;5037444;28;20889;-58
2021/12/04 03:54:46;;;;;;;45.92;14.15;;;;;;;;;;5042127;28;20037;-57
2021/12/04 03:57:15;;;;;;;55.85;14.57;;;;;;;;;;5039611;28;20522;-59
2021/12/04 03:59:48;;;;;;;38.40;13.13;;;;;;;;;;5038765;28;20021;-59
2021/12/04 04:02:19;;;;;;;42.38;13.20;;;;;;;;;;5040076;28;20032;-60
2021/12/04 04:04:46;;;;;;;45.78;12.57;;;;;;;;;;5041978;28;20060;-58
2021/12/04 04:07:12;;;;;;;42.42;13.38;;;;;;;;;;5041619;28;20419;-59
2021/12/04 04:09:41;;;;;;;45.05;11.32;;;;;;;;;;5042191;28;20028;-60
2021/12/04 04:12:09;;;;;;;45.95;14.38;;;;;;;;;;5039562;28;20051;-59
2021/12/04 04:14:35;;;;;;;41.25;13.38;;;;;;;;;;5041057;28;20479;-59
2021/12/04 04:17:05;;;;;;;45.30;12.93;;;;;;;;;;5037923;28;20652;-61
2021/12/04 04:19:33;;;;;;;40.15;13.60;;;;;;;;;;5037538;28;20057;-58
2021/12/04 04:22:03;;;;;;;37.15;12.27;;;;;;;;;;5040546;28;20037;-59
2021/12/04 04:24:31;;;;;;;33.17;10.95;;;;;;;;;;5040997;28;20032;-60
2021/12/04 04:26:57;;;;;;;45.92;13.35;;;;;;;;;;5040142;28;20404;-60
2021/12/04 04:29:26;;;;;;;33.17;11.40;;;;;;;;;;5040771;28;20024;-59
2021/12/04 04:31:56;;;;;;;37.05;12.05;;;;;;;;;;5037015;28;20082;-60
2021/12/04 04:34:33;;;;;;;36.97;11.95;;;;;;;;;;5042025;28;20044;-59
2021/12/04 04:40:20;;;;;;;34.33;11.10;;;;;;;;;;5042302;28;20028;-61
2021/12/04 05:12:55;;;;;;;36.28;12.00;;;;;;;;;;5040434;28;20036;-60
2021/12/04 05:20:36;;;;;;;36.72;11.35;;;;;;;;;;5053982;28;20301;-59
2021/12/04 05:23:01;;;;;;;44.85;12.32;;;;;;;;;;5037276;28;20048;-59
2021/12/04 05:25:30;;;;;;;39.55;11.23;;;;;;;;;;5039448;28;20037;-60
2021/12/04 05:27:58;;;;;;;46.92;12.00;;;;;;;;;;5039204;28;20028;-60
2021/12/04 05:30:26;;;;;;;30.17;10.18;;;;;;;;;;5042199;28;20124;-60
2021/12/04 05:32:52;;;;;;;38.13;12.18;;;;;;;;;;5043387;28;20032;-60
2021/12/04 05:35:21;;;;;;;44.03;12.57;;;;;;;;;;5040323;28;20045;-59
2021/12/04 05:37:47;;;;;;;35.15;11.18;;;;;;;;;;5045428;28;20043;-59
2021/12/04 05:40:15;;;;;;;40.67;11.10;;;;;;;;;;5057441;28;20036;-59
2021/12/04 05:42:43;;;;;;;42.47;11.40;;;;;;;;;;5040529;28;20040;-60
2021/12/04 05:45:17;;;;;;;30.90;10.60;;;;;;;;;;5049157;28;20826;-59
2021/12/04 05:47:59;;;;;;;29.45;10.75;;;;;;;;;;5043861;28;20048;-61
2021/12/04 05:53:23;;;;;;;30.95;10.13;;;;;;;;;;5042462;28;20111;-59
2021/12/04 05:55:52;;;;;;;33.50;10.73;;;;;;;;;;5044446;28;21073;-58
2021/12/04 05:58:22;;;;;;;32.45;10.85;;;;;;;;;;5057869;28;20040;-58
2021/12/04 06:00:51;;;;;;;33.88;11.73;;;;;;;;;;5049515;28;20063;-58
2021/12/04 06:03:21;;;;;;;32.05;10.75;;;;;;;;;;5043524;28;20029;-59
2021/12/04 06:05:51;;;;;;;37.40;11.48;;;;;;;;;;5044487;28;20112;-59
2021/12/04 06:08:21;;;;;;;36.05;11.43;;;;;;;;;;5044543;28;20480;-59
2021/12/04 06:10:51;;;;;;;29.13;9.45;;;;;;;;;;5044586;28;20098;-59
2021/12/04 06:13:17;;;;;;;29.33;10.40;;;;;;;;;;5043298;28;20039;-59
2021/12/04 06:15:45;;;;;;;32.20;11.00;;;;;;;;;;5041107;28;20091;-60
2021/12/04 06:18:15;;;;;;;34.35;10.85;;;;;;;;;;5044208;28;20631;-60
2021/12/04 06:23:28;;;;;;;33.90;10.88;;;;;;;;;;5043426;28;20667;-58
2021/12/04 06:25:54;;;;;;;35.75;9.23;;;;;;;;;;5043128;28;20044;-59
2021/12/04 06:28:19;;;;;;;31.83;9.68;;;;;;;;;;5042935;28;20762;-58
2021/12/04 06:30:52;;;;;;;33.72;10.10;;;;;;;;;;5040141;28;20049;-60
2021/12/04 06:33:22;;;;;;;38.67;11.15;;;;;;;;;;5056883;28;20037;-58
2021/12/04 06:35:52;;;;;;;28.35;9.98;;;;;;;;;;5041682;28;20067;-59
2021/12/04 06:38:18;;;;;;;35.95;10.75;;;;;;;;;;5025788;28;20707;-58
2021/12/04 06:40:44;;;;;;;36.15;11.18;;;;;;;;;;5042215;28;20114;-59
2021/12/04 06:43:12;;;;;;;36.25;11.93;;;;;;;;;;5042474;28;20039;-58
2021/12/04 06:45:45;;;;;;;45.78;11.63;;;;;;;;;;5043847;28;20032;-59
2021/12/04 06:48:34;;;;;;;30.65;9.80;;;;;;;;;;5043588;28;20111;-59
2021/12/04 06:51:05;;;;;;;44.15;11.20;;;;;;;;;;5043307;28;20942;-59
2021/12/04 06:53:48;;;;;;;33.72;10.40;;;;;;;;;;5038112;28;20574;-59
2021/12/04 06:56:16;;;;;;;33.80;11.38;;;;;;;;;;5042671;28;20111;-60
2021/12/04 06:58:44;;;;;;;28.42;9.88;;;;;;;;;;5039745;28;20037;-59
2021/12/04 07:01:12;;;;;;;34.17;10.10;;;;;;;;;;5022590;28;20040;-59
2021/12/04 07:03:39;;;;;;;38.47;10.27;;;;;;;;;;5040716;28;20671;-59
2021/12/04 07:06:04;;;;;;;40.50;11.05;;;;;;;;;;5055718;28;20055;-59
2021/12/04 07:08:35;;;;;;;36.22;9.88;;;;;;;;;;5039464;28;20056;-59
2021/12/04 07:11:04;;;;;;;39.55;10.85;;;;;;;;;;5056893;28;20033;-59
2021/12/04 07:13:34;;;;;;;48.78;10.88;;;;;;;;;;5043096;28;20161;-59
2021/12/04 07:16:08;;;;;;;39.42;10.75;;;;;;;;;;5055121;28;20044;-59
2021/12/04 07:18:34;;;;;;;37.95;10.88;;;;;;;;;;5043501;28;20045;-59
2021/12/04 07:21:02;;;;;;;31.70;10.18;;;;;;;;;;5042915;28;20071;-59
2021/12/04 07:23:28;;;;;;;42.05;12.48;;;;;;;;;;5042790;28;20107;-58
2021/12/04 07:25:54;;;;;;;39.50;11.85;;;;;;;;;;5046640;28;20838;-58
2021/12/04 07:28:25;;;;;;;31.27;10.60;;;;;;;;;;5041361;28;20024;-58
2021/12/04 07:30:52;;;;;;;36.53;11.02;;;;;;;;;;5040630;28;20029;-58
2021/12/04 07:33:22;;;;;;;34.17;11.52;;;;;;;;;;5040350;28;20986;-58
2021/12/04 07:35:48;;;;;;;42.78;12.77;;;;;;;;;;5029997;28;20063;-59
2021/12/04 07:38:16;;;;;;;33.53;10.43;;;;;;;;;;5039453;28;20151;-58
2021/12/04 07:40:44;;;;;;;41.47;10.98;;;;;;;;;;5040539;28;20091;-58
2021/12/04 07:43:10;;;;;;;33.75;11.70;;;;;;;;;;5039625;28;20531;-58
2021/12/04 07:45:41;;;;;;;31.65;10.10;;;;;;;;;;5040694;28;20031;-58
2021/12/04 07:48:09;;;;;;;45.28;12.60;;;;;;;;;;5041104;28;20692;-58
2021/12/04 07:50:39;;;;;;;36.20;10.65;;;;;;;;;;5041075;28;20028;-58
2021/12/04 07:53:04;;;;;;;35.80;10.60;;;;;;;;;;5037887;28;20044;-59
2021/12/04 07:55:35;;;;;;;36.97;10.50;;;;;;;;;;5037258;28;20132;-59
2021/12/04 07:58:00;;;;;;;40.63;10.90;;;;;;;;;;5040213;28;20078;-58
2021/12/04 08:00:28;;;;;;;40.15;12.48;;;;;;;;;;5019636;28;20635;-59
2021/12/04 08:02:54;;;;;;;35.60;10.40;;;;;;;;;;5038947;28;20471;-59
2021/12/04 08:05:22;;;;;;;47.05;12.95;;;;;;;;;;5039996;28;20032;-58
2021/12/04 08:07:49;;;;;;;41.85;11.70;;;;;;;;;;5040390;28;20043;-58
2021/12/04 08:10:18;;;;;;;46.83;11.05;;;;;;;;;;5027354;28;20040;-59
2021/12/04 08:12:44;;;;;;;37.35;11.50;;;;;;;;;;5052188;28;20044;-59
2021/12/04 08:15:13;;;;;;;37.38;9.98;;;;;;;;;;5039164;28;20958;-59
2021/12/04 08:17:43;;;;;;;50.80;11.10;;;;;;;;;;5036918;28;20119;-59
2021/12/04 08:20:11;;;;;;;28.88;10.88;;;;;;;;;;5044720;28;20035;-58
2021/12/04 08:22:39;;;;;;;30.52;10.15;;;;;;;;;;5053847;28;20029;-59
2021/12/04 08:25:10;;;;;;;22.40;9.82;;;;;;;;;;5029249;28;20033;-59
2021/12/04 08:27:36;;;;;;;30.58;10.02;;;;;;;;;;5036918;28;20074;-59
2021/12/04 08:30:06;;;;;;;36.90;10.48;;;;;;;;;;5039064;28;20029;-58
2021/12/04 08:32:31;;;;;;;33.72;11.18;;;;;;;;;;5035992;28;20165;-58
2021/12/04 08:34:59;;;;;;;29.75;10.93;;;;;;;;;;5037318;28;20127;-58
2021/12/04 08:37:25;;;;;;;30.00;10.77;;;;;;;;;;5051807;28;22166;-58
2021/12/04 08:39:51;;;;;;;33.90;12.23;;;;;;;;;;5037162;28;21006;-58
2021/12/04 08:42:19;;;;;;;35.85;10.80;;;;;;;;;;5034477;28;20036;-58
2021/12/04 08:44:45;;;;;;;29.65;10.35;;;;;;;;;;5037471;28;20492;-58
2021/12/04 08:47:13;;;;;;;35.08;10.65;;;;;;;;;;5051614;28;20025;-58
2021/12/04 08:49:39;;;;;;;27.08;9.43;;;;;;;;;;5039031;28;20035;-58
2021/12/04 08:52:05;;;;;;;29.50;10.63;;;;;;;;;;5035898;28;20036;-58
2021/12/04 08:54:33;;;;;;;22.70;9.80;;;;;;;;;;5035566;28;20032;-59
2021/12/04 08:56:59;;;;;;;28.05;9.73;;;;;;;;;;5037371;28;20036;-58
2021/12/04 08:59:29;;;;;;;23.75;9.32;;;;;;;;;;5035240;28;20067;-58
2021/12/04 09:01:54;;;;;;;31.40;10.23;;;;;;;;;;5036186;28;20044;-58
2021/12/04 09:04:26;;;;;;;23.83;10.20;;;;;;;;;;5036530;28;20100;-58
2021/12/04 09:06:54;;;;;;;17.80;7.68;;;;;;;;;;5025337;28;20037;-60
2021/12/04 09:09:23;;;;;;;25.50;9.95;;;;;;;;;;5022610;28;20053;-60
2021/12/04 09:11:53;;;;;;;24.77;9.45;;;;;;;;;;5040304;28;20036;-59
2021/12/04 09:14:24;;;;;;;23.02;8.85;;;;;;;;;;5037923;28;20602;-59
2021/12/04 09:16:52;;;;;;;20.58;8.13;;;;;;;;;;5035615;28;20361;-59
2021/12/04 09:19:21;;;;;;;25.23;8.57;;;;;;;;;;5037220;28;20035;-60
2021/12/04 09:21:49;;;;;;;22.27;8.32;;;;;;;;;;5037133;28;20088;-59
2021/12/04 09:24:24;;;;;;;21.75;8.15;;;;;;;;;;5034228;28;20062;-59
2021/12/04 09:30:11;;;;;;;22.05;8.10;;;;;;;;;;5036444;28;19932;-59
2021/12/04 09:32:39;;;;;;;18.85;7.80;;;;;;;;;;5026110;28;20507;-59
2021/12/04 10:16:36;;;;;;;20.15;7.22;;;;;;;;;;5033932;28;20040;-60
2021/12/04 10:34:32;;;;;;;15.68;8.20;;;;;;;;;;5037885;28;21007;-58
2021/12/04 10:37:12;;;;;;;13.60;6.57;;;;;;;;;;5055491;28;20102;-58
2021/12/04 10:39:39;;;;;;;16.67;7.38;;;;;;;;;;5039746;28;20037;-60
2021/12/04 10:42:13;;;;;;;13.93;6.95;;;;;;;;;;5021201;28;20594;-60
2021/12/04 10:44:41;;;;;;;;;;;;;;;;;;5055955;28;20119;-59
2021/12/04 10:47:11;;;;;;;16.95;7.03;;;;;;;;;;5039750;28;19917;-59
2021/12/04 10:52:21;;;;;;;12.18;6.22;;;;;;;;;;5041804;28;20072;-59
2021/12/04 10:54:51;;;;;;;11.52;5.90;;;;;;;;;;5039550;28;20514;-59
2021/12/04 11:02:50;;;;;;;11.95;6.43;;;;;;;;;;5040787;28;20044;-60
2021/12/04 11:18:39;;;;;;;10.95;6.13;;;;;;;;;;5040279;28;20032;-59
2021/12/04 11:19:58;;;;;;;14.52;6.93;;;;;;;;;;5037402;28;20070;-59
2021/12/04 11:36:21;;;;;;;14.95;6.10;;;;;;;;;;5039219;28;20068;-60
2021/12/04 11:39:19;;;;;;;14.35;5.47;;;;;;;;;;5038267;28;20035;-59
2021/12/04 11:41:55;;;;;;;16.65;6.93;;;;;;;;;;5038919;28;20144;-59
2021/12/04 11:44:32;;;;;;;12.77;6.38;;;;;;;;;;5037388;28;20226;-60
2021/12/04 11:46:58;;;;;;;;;;;;;;;;;;5040058;28;20029;-59
2021/12/04 11:49:25;;;;;;;14.25;6.78;;;;;;;;;;5039354;28;20314;-59
2021/12/04 11:52:07;;;;;;;14.90;6.38;;;;;;;;;;5038261;28;20041;-60
2021/12/04 11:54:44;;;;;;;15.93;6.95;;;;;;;;;;5039273;28;20130;-59
2021/12/04 11:57:13;;;;;;;12.45;6.43;;;;;;;;;;5054250;28;20029;-60
2021/12/04 11:59:40;;;;;;;14.63;6.80;;;;;;;;;;5055645;28;20031;-60
2021/12/04 12:02:15;;;;;;;15.00;6.93;;;;;;;;;;5038965;28;20762;-60
2021/12/04 12:04:45;;;;;;;14.43;6.50;;;;;;;;;;5038779;28;20036;-60
2021/12/04 12:07:21;;;;;;;16.13;6.50;;;;;;;;;;5041762;28;20020;-60
2021/12/04 12:10:00;;;;;;;13.45;5.63;;;;;;;;;;5036998;28;20056;-59
2021/12/04 12:12:33;;;;;;;11.35;5.53;;;;;;;;;;5036395;28;20460;-59
2021/12/04 12:15:03;;;;;;;14.18;6.93;;;;;;;;;;5040477;28;20136;-60
2021/12/04 12:17:37;;;;;;;15.27;6.50;;;;;;;;;;5037001;28;20123;-59
2021/12/04 12:20:08;;;;;;;15.80;6.75;;;;;;;;;;5039102;28;20051;-59
2021/12/04 12:22:42;;;;;;;16.70;7.53;;;;;;;;;;5020267;28;20131;-59
2021/12/04 12:38:58;;;;;;;20.52;9.25;;;;;;;;;;5012626;28;20040;-61
2021/12/04 12:41:46;;;;;;;20.60;7.97;;;;;;;;;;5035666;28;20040;-60
2021/12/04 12:44:30;;;;;;;22.58;8.18;;;;;;;;;;5039376;28;20075;-60
2021/12/04 12:47:16;;;;;;;17.80;7.80;;;;;;;;;;5040658;28;20104;-59
2021/12/04 12:50:05;;;;;;;19.33;6.97;;;;;;;;;;5034911;28;20098;-60
2021/12/04 12:52:58;;;;;;;18.13;7.63;;;;;;;;;;5037907;28;20521;-60
2021/12/04 12:55:43;;;;;;;18.42;7.25;;;;;;;;;;5032607;28;20074;-58
2021/12/04 12:58:39;;;;;;;17.20;7.80;;;;;;;;;;5039294;28;20129;-60
2021/12/04 13:13:48;;;;;;;26.30;8.38;;;;;;;;;;5037131;28;20051;-58
2021/12/04 13:16:37;;;;;;;23.83;8.50;;;;;;;;;;5037574;28;20047;-59
2021/12/04 13:19:29;;;;;;;29.23;10.05;;;;;;;;;;5033246;28;20055;-61
2021/12/04 13:22:27;;;;;;;27.98;9.45;;;;;;;;;;5034244;28;20044;-60
2021/12/04 13:25:14;;;;;;;31.92;9.20;;;;;;;;;;5039874;28;20118;-59
2021/12/04 13:30:47;;;;;;;19.00;8.48;;;;;;;;;;5036822;28;20044;-60
2021/12/04 13:33:36;;;;;;;27.77;9.38;;;;;;;;;;5048753;28;20178;-60
2021/12/04 13:36:23;;;;;;;30.83;9.63;;;;;;;;;;5041248;28;20127;-61
2021/12/04 13:39:11;;;;;;;26.52;8.55;;;;;;;;;;5035313;28;20132;-59
2021/12/04 13:41:58;;;;;;;32.85;11.82;;;;;;;;;;5038517;28;21938;-61
2021/12/04 13:44:47;;;;;;;28.67;10.00;;;;;;;;;;5037825;28;20043;-59
2021/12/04 13:47:33;;;;;;;37.08;10.90;;;;;;;;;;5040272;28;20084;-61
2021/12/04 13:51:05;;;;;;;37.72;12.02;;;;;;;;;;5032284;28;20107;-59
2021/12/04 13:53:26;;;;;;;;;;;;;;;;;;5037549;28;20052;-59
2021/12/04 13:56:12;;;;;;;26.33;10.10;;;;;;;;;;5039214;28;19939;-60
2021/12/04 13:58:58;;;;;;;30.10;11.57;;;;;;;;;;5038796;28;20550;-59
2021/12/04 14:01:52;;;;;;;33.53;11.65;;;;;;;;;;5038531;28;20056;-60
2021/12/04 14:04:36;;;;;;;36.47;11.48;;;;;;;;;;5043643;28;20698;-61
2021/12/04 14:07:20;;;;;;;30.58;10.27;;;;;;;;;;5038202;28;21182;-60
2021/12/04 14:10:15;;;;;;;35.90;12.25;;;;;;;;;;5039530;28;20654;-59
2021/12/04 14:13:01;;;;;;;38.97;12.88;;;;;;;;;;5038096;28;20113;-59
2021/12/04 14:15:50;;;;;;;43.25;11.90;;;;;;;;;;5039159;28;20117;-59
2021/12/04 14:18:42;;;;;;;36.03;12.18;;;;;;;;;;5040399;28;20043;-59
2021/12/04 14:21:28;;;;;;;38.42;11.85;;;;;;;;;;5043624;28;20136;-59
2021/12/04 14:24:13;;;;;;;45.53;11.82;;;;;;;;;;5038810;28;20114;-59
2021/12/04 14:26:58;;;;;;;41.65;12.20;;;;;;;;;;5039182;28;20043;-59
2021/12/04 14:29:49;;;;;;;41.15;11.65;;;;;;;;;;5039215;28;20044;-59
2021/12/04 14:32:34;;;;;;;41.28;12.23;;;;;;;;;;5039324;28;20151;-60
2021/12/04 14:35:19;;;;;;;46.00;12.07;;;;;;;;;;5040037;28;20087;-59
2021/12/04 14:38:03;;;;;;;;;;;;;;;;;;5042207;28;20055;-59
2021/12/04 14:41:07;;;;;;;47.80;12.73;;;;;;;;;;5041626;28;19931;-60
2021/12/04 14:43:36;;;;;;;40.35;12.30;;;;;;;;;;5041801;28;20114;-59
2021/12/04 14:46:09;;;;;;;38.20;12.10;;;;;;;;;;5025703;28;20038;-60
2021/12/04 14:48:36;;;;;;;49.17;13.32;;;;;;;;;;5038965;28;20134;-60
2021/12/04 14:51:13;;;;;;;52.00;13.77;;;;;;;;;;5038606;28;20020;-58
2021/12/04 14:53:45;;;;;;;52.53;13.23;;;;;;;;;;5054358;28;20028;-59
2021/12/04 14:56:11;;;;;;;47.50;12.75;;;;;;;;;;5038852;28;20111;-59
2021/12/04 14:58:36;;;;;;;40.63;12.10;;;;;;;;;;5028583;28;20284;-59
2021/12/04 15:01:08;;;;;;;48.55;13.77;;;;;;;;;;5040811;28;20067;-59
2021/12/04 15:03:34;;;;;;;50.25;14.35;;;;;;;;;;5037907;28;20025;-58
2021/12/04 15:06:04;;;;;;;47.72;12.73;;;;;;;;;;5037071;28;20016;-59
2021/12/04 15:08:33;;;;;;;54.35;13.75;;;;;;;;;;5053543;28;20700;-60
2021/12/04 15:11:00;;;;;;;54.95;14.13;;;;;;;;;;5040331;28;20059;-59
2021/12/04 15:13:30;;;;;;;52.10;13.65;;;;;;;;;;5038286;28;20029;-59
2021/12/04 15:16:04;;;;;;;50.72;12.80;;;;;;;;;;5040386;28;20048;-59
2021/12/04 15:18:32;;;;;;;55.13;15.57;;;;;;;;;;5042939;28;20040;-59
2021/12/04 15:21:04;;;;;;;45.42;13.50;;;;;;;;;;5041015;28;20028;-59
2021/12/04 15:23:35;;;;;;;61.20;14.13;;;;;;;;;;5052923;28;20037;-59
2021/12/04 15:26:08;;;;;;;46.40;14.00;;;;;;;;;;5037136;28;20028;-59
2021/12/04 15:28:36;;;;;;;59.88;14.80;;;;;;;;;;5053490;28;20055;-59
2021/12/04 15:31:03;;;;;;;57.85;16.00;;;;;;;;;;5038743;28;20020;-59
2021/12/04 15:33:36;;;;;;;56.88;15.05;;;;;;;;;;5040625;28;20033;-59
2021/12/04 15:36:08;;;;;;;58.38;14.93;;;;;;;;;;5052928;28;20087;-59
2021/12/04 15:38:42;;;;;;;79.13;17.38;;;;;;;;;;5019098;28;20033;-59
2021/12/04 15:46:37;;;;;;;65.05;16.75;;;;;;;;;;5053033;28;20141;-58
2021/12/04 15:55:02;;;;;;;64.53;16.42;;;;;;;;;;5040478;28;20033;-59
2021/12/04 15:57:28;;;;;;;60.65;16.23;;;;;;;;;;5036684;28;20563;-59
2021/12/04 15:59:57;;;;;;;66.05;16.13;;;;;;;;;;5039677;28;20611;-58
2021/12/04 16:02:34;;;;;;;66.03;16.77;;;;;;;;;;5038969;28;20126;-58
2021/12/04 16:05:06;;;;;;;62.58;17.05;;;;;;;;;;5041414;28;20102;-60
2021/12/04 16:07:33;;;;;;;61.80;17.42;;;;;;;;;;5040745;28;22001;-62
2021/12/04 16:10:07;;;;;;;65.55;16.95;;;;;;;;;;5054165;28;20563;-58
2021/12/04 16:12:40;;;;;;;64.60;17.25;;;;;;;;;;5040747;28;20033;-59
2021/12/04 16:15:08;;;;;;;75.72;18.13;;;;;;;;;;5039137;28;20048;-58
2021/12/04 16:17:38;;;;;;;62.83;17.40;;;;;;;;;;5040709;28;20063;-59
2021/12/04 16:20:14;;;;;;;68.82;18.50;;;;;;;;;;5035986;28;20036;-59
2021/12/04 16:22:42;;;;;;;62.53;16.70;;;;;;;;;;5054891;28;20080;-59
2021/12/04 16:25:10;;;;;;;70.97;17.98;;;;;;;;;;5053531;28;20414;-57
2021/12/04 16:27:47;;;;;;;75.72;17.55;;;;;;;;;;5037471;28;21025;-57
2021/12/04 16:38:00;;;;;;;55.83;16.42;;;;;;;;;;5036676;28;20743;-59
2021/12/04 16:40:29;;;;;;;73.10;17.23;;;;;;;;;;5039300;28;20028;-59
2021/12/04 16:43:04;;;;;;;57.75;16.33;;;;;;;;;;5035502;28;20143;-58
2021/12/04 16:45:34;;;;;;;71.53;18.98;;;;;;;;;;5038886;28;21961;-59
2021/12/04 16:48:06;;;;;;;69.25;17.70;;;;;;;;;;5037719;28;20020;-59
2021/12/04 16:58:44;;;;;;;65.82;18.20;;;;;;;;;;5039267;28;20052;-58
2021/12/04 17:01:13;;;;;;;64.65;16.10;;;;;;;;;;5037599;28;20652;-58
2021/12/04 17:03:38;;;;;;;59.75;17.27;;;;;;;;;;5040571;28;20033;-58
2021/12/04 17:06:04;;;;;;;56.88;16.27;;;;;;;;;;5039050;28;20025;-58
2021/12/04 17:08:29;;;;;;;67.70;18.02;;;;;;;;;;5021389;28;20029;-58
2021/12/04 17:10:57;;;;;;;66.80;16.80;;;;;;;;;;5051416;28;20024;-58
2021/12/04 17:13:26;;;;;;;68.60;16.45;;;;;;;;;;5020844;28;21484;-59
2021/12/04 17:15:53;;;;;;;60.58;17.90;;;;;;;;;;5036875;28;20109;-59
2021/12/04 17:18:25;;;;;;;55.03;17.20;;;;;;;;;;5038027;28;20037;-59
2021/12/04 17:20:57;;;;;;;62.47;18.33;;;;;;;;;;5040482;28;20036;-59
2021/12/04 17:23:27;;;;;;;66.88;16.52;;;;;;;;;;5038912;28;20563;-59
2021/12/04 17:25:57;;;;;;;66.47;17.13;;;;;;;;;;5054647;28;20124;-58
2021/12/04 17:28:24;;;;;;;46.75;15.90;;;;;;;;;;5049873;28;20048;-61
2021/12/04 17:30:50;;;;;;;54.60;16.35;;;;;;;;;;5040359;28;20457;-59
2021/12/04 17:33:18;;;;;;;65.93;17.00;;;;;;;;;;5059575;28;20037;-59
2021/12/04 17:35:43;;;;;;;59.30;17.25;;;;;;;;;;5043814;28;20032;-59
2021/12/04 17:38:11;;;;;;;56.28;16.08;;;;;;;;;;5038955;28;20033;-60
2021/12/04 17:40:39;;;;;;;43.65;13.70;;;;;;;;;;5039598;28;20085;-60
2021/12/04 17:43:09;;;;;;;49.33;15.43;;;;;;;;;;5041652;28;20042;-60
2021/12/04 17:45:37;;;;;;;50.17;14.55;;;;;;;;;;5039661;28;20032;-60
2021/12/04 17:48:05;;;;;;;48.50;14.88;;;;;;;;;;5042249;28;20016;-59
2021/12/04 17:50:31;;;;;;;61.22;15.93;;;;;;;;;;5040962;28;20468;-60
2021/12/04 17:52:57;;;;;;;53.10;15.15;;;;;;;;;;5041530;28;20087;-59
2021/12/04 17:55:26;;;;;;;43.40;13.63;;;;;;;;;;5056020;28;20041;-59
2021/12/04 17:57:52;;;;;;;39.72;14.65;;;;;;;;;;5041929;28;20032;-59
2021/12/04 18:00:27;;;;;;;50.50;14.23;;;;;;;;;;5038535;28;20037;-58
2021/12/04 18:02:53;;;;;;;38.10;12.70;;;;;;;;;;5021797;28;20114;-59
2021/12/04 18:05:23;;;;;;;45.72;14.00;;;;;;;;;;5042589;28;20408;-59
2021/12/04 18:07:49;;;;;;;41.40;13.70;;;;;;;;;;5058247;28;20020;-59
2021/12/04 18:10:15;;;;;;;47.13;14.30;;;;;;;;;;5040479;28;20025;-60
2021/12/04 18:12:46;;;;;;;45.17;14.30;;;;;;;;;;5053718;28;20033;-60
2021/12/04 18:15:16;;;;;;;35.20;13.02;;;;;;;;;;5040965;28;20048;-59
2021/12/04 18:17:47;;;;;;;52.08;11.73;;;;;;;;;;5042835;28;20032;-60
2021/12/04 18:20:13;;;;;;;30.40;10.32;;;;;;;;;;5042937;28;20040;-59
2021/12/04 18:22:38;;;;;;;36.80;13.02;;;;;;;;;;5059648;28;20036;-60
2021/12/04 18:25:07;;;;;;;46.78;14.15;;;;;;;;;;5041269;28;20036;-61